createdAt,value
2023-01-30T00:01:46.684Z,97337.00
2023-01-30T00:04:21.635Z,97339.00
2023-01-30T00:06:48.497Z,97340.00
2023-01-30T00:09:15.495Z,97339.00
2023-01-30T00:11:42.563Z,97328.00
2023-01-30T00:14:10.333Z,97317.00
2023-01-30T00:16:37.237Z,97333.00
2023-01-30T00:19:04.264Z,97317.00
2023-01-30T00:21:31.176Z,97321.00
2023-01-30T00:24:01.067Z,97326.00
2023-01-30T00:26:27.956Z,97319.00
2023-01-30T00:28:55.850Z,97319.00
2023-01-30T00:31:22.707Z,97328.00
2023-01-30T00:33:49.678Z,97309.00
2023-01-30T00:36:17.603Z,97312.00
2023-01-30T00:38:44.356Z,97288.00
2023-01-30T00:41:13.133Z,97282.00
2023-01-30T00:43:59.387Z,97276.00
2023-01-30T00:46:55.237Z,97284.00
2023-01-30T00:49:23.185Z,97280.00
2023-01-30T00:51:50.015Z,97271.00
2023-01-30T00:54:17.966Z,97271.00
2023-01-30T00:56:45.947Z,97263.00
2023-01-30T00:59:13.887Z,97263.00
2023-01-30T01:01:40.748Z,97233.00
2023-01-30T01:04:10.377Z,97231.00
2023-01-30T01:06:38.610Z,97228.00
2023-01-30T01:09:07.484Z,97241.00
2023-01-30T01:11:34.470Z,97233.00
2023-01-30T01:14:03.614Z,97230.00
2023-01-30T01:16:35.343Z,97213.00
2023-01-30T01:19:04.232Z,97201.00
2023-01-30T01:21:32.046Z,97201.00
2023-01-30T01:24:01.122Z,97224.00
2023-01-30T01:26:29.070Z,97233.00
2023-01-30T01:28:59.565Z,97227.00
2023-01-30T01:31:26.837Z,97239.00
2023-01-30T01:33:53.722Z,97238.00
2023-01-30T01:36:52.240Z,97238.00
2023-01-30T01:39:09.609Z,97236.00
2023-01-30T01:41:36.399Z,97240.00
2023-01-30T01:44:12.438Z,97253.00
2023-01-30T01:46:57.325Z,97238.00
2023-01-30T01:49:32.820Z,97247.00
2023-01-30T01:52:12.179Z,97270.00
2023-01-30T01:54:46.062Z,97280.00
2023-01-30T01:57:35.089Z,97260.00
2023-01-30T02:00:12.902Z,97269.00
2023-01-30T02:02:51.831Z,97255.00
2023-01-30T02:05:20.568Z,97248.00
2023-01-30T02:08:10.130Z,97264.00
2023-01-30T02:10:51.258Z,97268.00
2023-01-30T02:13:20.433Z,97243.00
2023-01-30T02:15:47.259Z,97239.00
2023-01-30T02:18:16.323Z,97265.00
2023-01-30T02:21:27.236Z,97241.00
2023-01-30T02:24:34.696Z,97253.00
2023-01-30T02:27:34.042Z,97252.00
2023-01-30T02:30:56.974Z,97232.00
2023-01-30T02:33:55.496Z,97234.00
2023-01-30T02:37:06.562Z,97234.00
2023-01-30T02:40:14.162Z,97229.00
2023-01-30T02:43:02.532Z,97220.00
2023-01-30T02:46:12.660Z,97217.00
2023-01-30T02:48:47.116Z,97196.00
2023-01-30T02:51:25.092Z,97194.00
2023-01-30T02:53:52.401Z,97197.00
2023-01-30T02:56:20.000Z,97198.00
2023-01-30T02:58:54.942Z,97197.00
2023-01-30T03:02:05.954Z,97202.00
2023-01-30T03:05:04.829Z,97187.00
2023-01-30T03:08:09.070Z,97184.00
2023-01-30T03:10:52.458Z,97174.00
2023-01-30T03:13:38.400Z,97157.00
2023-01-30T03:16:24.234Z,97168.00
2023-01-30T03:18:51.209Z,97150.00
2023-01-30T03:21:18.305Z,97150.00
2023-01-30T03:23:47.466Z,97125.00
2023-01-30T03:26:24.182Z,97117.00
2023-01-30T03:28:53.652Z,97106.00
2023-01-30T03:31:21.161Z,97096.00
2023-01-30T03:33:48.147Z,97076.00
2023-01-30T03:36:15.201Z,97071.00
2023-01-30T03:38:43.753Z,97129.00
2023-01-30T03:41:11.229Z,97155.00
2023-01-30T03:43:38.577Z,97156.00
2023-01-30T03:46:05.373Z,97145.00
2023-01-30T03:48:33.413Z,97156.00
2023-01-30T03:51:00.413Z,97148.00
2023-01-30T03:53:27.192Z,97135.00
2023-01-30T03:55:53.974Z,97152.00
2023-01-30T03:58:21.099Z,97144.00
2023-01-30T04:00:48.322Z,97128.00
2023-01-30T04:03:15.738Z,97106.00
2023-01-30T04:05:45.851Z,97093.00
2023-01-30T04:08:13.788Z,97101.00
2023-01-30T04:10:41.455Z,97092.00
2023-01-30T04:13:08.238Z,97096.00
2023-01-30T04:15:35.712Z,97076.00
2023-01-30T04:18:02.558Z,97073.00
2023-01-30T04:20:30.257Z,97062.00
2023-01-30T04:22:57.816Z,97072.00
2023-01-30T04:25:24.799Z,97092.00
2023-01-30T04:27:51.574Z,97061.00
2023-01-30T04:30:18.631Z,97051.00
2023-01-30T04:32:45.453Z,97050.00
2023-01-30T04:35:12.918Z,97048.00
2023-01-30T04:37:41.341Z,97048.00
2023-01-30T04:40:10.456Z,97050.00
2023-01-30T04:42:37.685Z,97038.00
2023-01-30T04:45:05.186Z,97042.00
2023-01-30T04:47:32.477Z,97042.00
2023-01-30T04:50:00.444Z,97031.00
2023-01-30T04:52:27.357Z,97025.00
2023-01-30T04:54:54.392Z,97017.00
2023-01-30T04:57:21.153Z,97025.00
2023-01-30T04:59:49.150Z,97038.00
2023-01-30T05:02:16.141Z,97032.00
2023-01-30T05:04:42.979Z,97040.00
2023-01-30T05:07:10.666Z,97017.00
2023-01-30T05:09:38.159Z,97011.00
2023-01-30T05:12:05.697Z,97026.00
2023-01-30T05:14:34.982Z,97007.00
2023-01-30T05:17:03.606Z,97023.00
2023-01-30T05:19:30.491Z,97011.00
2023-01-30T05:21:57.975Z,97019.00
2023-01-30T05:24:25.329Z,97025.00
2023-01-30T05:26:52.643Z,97038.00
2023-01-30T05:29:19.891Z,97033.00
2023-01-30T05:31:46.689Z,97031.00
2023-01-30T05:34:13.936Z,97022.00
2023-01-30T05:36:40.786Z,97020.00
2023-01-30T05:39:07.623Z,97017.00
2023-01-30T05:41:34.396Z,97010.00
2023-01-30T05:44:01.194Z,97031.00
2023-01-30T05:46:28.069Z,97035.00
2023-01-30T05:48:54.892Z,97031.00
2023-01-30T05:51:25.495Z,97018.00
2023-01-30T05:53:52.981Z,97016.00
2023-01-30T05:56:20.366Z,97004.00
2023-01-30T05:58:55.043Z,97004.00
2023-01-30T06:01:23.514Z,96999.00
2023-01-30T06:03:50.807Z,96981.00
2023-01-30T06:06:18.109Z,96990.00
2023-01-30T06:08:44.959Z,96982.00
2023-01-30T06:11:15.573Z,96969.00
2023-01-30T06:13:42.999Z,96970.00
2023-01-30T06:16:12.631Z,96974.00
2023-01-30T06:18:39.924Z,96968.00
2023-01-30T06:21:07.661Z,96982.00
2023-01-30T06:23:35.313Z,96966.00
2023-01-30T06:26:04.596Z,96966.00
2023-01-30T06:28:32.349Z,96967.00
2023-01-30T06:30:59.331Z,96968.00
2023-01-30T06:33:26.233Z,96986.00
2023-01-30T06:35:53.272Z,96967.00
2023-01-30T06:38:20.730Z,96960.00
2023-01-30T06:40:49.974Z,96971.00
2023-01-30T06:43:17.452Z,96958.00
2023-01-30T06:45:44.338Z,96981.00
2023-01-30T06:48:11.299Z,96971.00
2023-01-30T06:50:38.195Z,96965.00
2023-01-30T06:53:07.512Z,96964.00
2023-01-30T06:55:36.361Z,96968.00
2023-01-30T06:58:12.922Z,96954.00
2023-01-30T07:00:41.898Z,96967.00
2023-01-30T07:03:14.387Z,96959.00
2023-01-30T07:05:43.419Z,96958.00
2023-01-30T07:08:11.289Z,96966.00
2023-01-30T07:10:39.034Z,96962.00
2023-01-30T07:13:06.023Z,96970.00
2023-01-30T07:15:33.318Z,96964.00
2023-01-30T07:18:01.429Z,96957.00
2023-01-30T07:20:30.159Z,96962.00
2023-01-30T07:22:57.888Z,96975.00
2023-01-30T07:25:27.173Z,96966.00
2023-01-30T07:28:02.573Z,96965.00
2023-01-30T07:30:35.852Z,96955.00
2023-01-30T07:33:06.248Z,96949.00
2023-01-30T07:35:35.159Z,96966.00
2023-01-30T07:38:02.200Z,96970.00
2023-01-30T07:40:29.088Z,96965.00
2023-01-30T07:43:12.107Z,96971.00
2023-01-30T07:45:48.730Z,96979.00
2023-01-30T07:48:18.983Z,96981.00
2023-01-30T07:50:46.580Z,96976.00
2023-01-30T07:53:16.116Z,96971.00
2023-01-30T07:55:43.322Z,96977.00
2023-01-30T07:58:16.842Z,96971.00
2023-01-30T08:00:44.639Z,96988.00
2023-01-30T08:03:14.127Z,96963.00
2023-01-30T08:05:41.065Z,96962.00
2023-01-30T08:08:07.880Z,96961.00
2023-01-30T08:10:34.661Z,96976.00
2023-01-30T08:13:01.433Z,96976.00
2023-01-30T08:15:28.239Z,96975.00
2023-01-30T08:17:56.279Z,96982.00
2023-01-30T08:20:23.966Z,96962.00
2023-01-30T08:22:50.784Z,96960.00
2023-01-30T08:25:17.831Z,96950.00
2023-01-30T08:27:44.684Z,96943.00
2023-01-30T08:30:13.211Z,96951.00
2023-01-30T08:32:40.149Z,96946.00
2023-01-30T08:35:07.842Z,96942.00
2023-01-30T08:37:34.942Z,96935.00
2023-01-30T08:40:01.779Z,96939.00
2023-01-30T08:42:28.542Z,96926.00
2023-01-30T08:44:55.346Z,96924.00
2023-01-30T08:47:22.111Z,96918.00
2023-01-30T08:49:51.269Z,96914.00
2023-01-30T08:52:18.380Z,96905.00
2023-01-30T08:54:45.368Z,96899.00
2023-01-30T08:57:14.146Z,96900.00
2023-01-30T08:59:41.572Z,96901.00
2023-01-30T09:02:12.882Z,96905.00
2023-01-30T09:04:40.161Z,96893.00
2023-01-30T09:07:07.021Z,96890.00
2023-01-30T09:09:34.007Z,96876.00
2023-01-30T09:12:00.811Z,96886.00
2023-01-30T09:14:27.696Z,96894.00
2023-01-30T09:16:57.139Z,96873.00
2023-01-30T09:19:26.514Z,96878.00
2023-01-30T09:21:55.346Z,96878.00
2023-01-30T09:24:27.714Z,96885.00
2023-01-30T09:26:57.517Z,96871.00
2023-01-30T09:29:25.636Z,96860.00
2023-01-30T09:31:53.056Z,96868.00
2023-01-30T09:34:20.029Z,96857.00
2023-01-30T09:36:46.784Z,96851.00
2023-01-30T09:39:13.567Z,96868.00
2023-01-30T09:42:23.615Z,96880.00
2023-01-30T09:45:37.697Z,96888.00
2023-01-30T09:48:19.610Z,96893.00
2023-01-30T09:51:05.461Z,96893.00
2023-01-30T09:54:21.933Z,96889.00
2023-01-30T09:57:21.304Z,96886.00
2023-01-30T10:00:22.607Z,96876.00
2023-01-30T10:03:08.192Z,96878.00
2023-01-30T10:05:58.293Z,96877.00
2023-01-30T10:08:49.550Z,96866.00
2023-01-30T10:11:22.271Z,96866.00
2023-01-30T10:14:07.315Z,96864.00
2023-01-30T10:17:14.794Z,96874.00
2023-01-30T10:19:59.573Z,96877.00
2023-01-30T10:22:52.617Z,96866.00
2023-01-30T10:25:41.729Z,96853.00
2023-01-30T10:29:06.328Z,96845.00
2023-01-30T10:31:50.308Z,96838.00
2023-01-30T10:34:34.811Z,96838.00
2023-01-30T10:37:13.439Z,96840.00
2023-01-30T10:40:21.915Z,96859.00
2023-01-30T10:43:38.161Z,96865.00
2023-01-30T10:46:23.154Z,96856.00
2023-01-30T10:49:06.549Z,96851.00
2023-01-30T10:52:01.378Z,96846.00
2023-01-30T10:54:43.023Z,96842.00
2023-01-30T10:57:43.659Z,96835.00
2023-01-30T11:00:50.315Z,96832.00
2023-01-30T11:03:44.116Z,96812.00
2023-01-30T11:06:19.000Z,96810.00
2023-01-30T11:08:46.364Z,96817.00
2023-01-30T11:11:54.821Z,96806.00
2023-01-30T11:14:21.738Z,96805.00
2023-01-30T11:16:53.932Z,96816.00
2023-01-30T11:19:25.513Z,96819.00
2023-01-30T11:22:04.403Z,96808.00
2023-01-30T11:24:40.591Z,96817.00
2023-01-30T11:27:26.811Z,96805.00
2023-01-30T11:30:03.470Z,96801.00
2023-01-30T11:32:30.412Z,96792.00
2023-01-30T11:35:15.728Z,96778.00
2023-01-30T11:37:45.372Z,96790.00
2023-01-30T11:40:23.854Z,96781.00
2023-01-30T11:43:14.134Z,96777.00
2023-01-30T11:45:47.873Z,96791.00
2023-01-30T11:48:32.795Z,96773.00
2023-01-30T11:51:15.598Z,96779.00
2023-01-30T11:53:51.189Z,96782.00
2023-01-30T11:56:25.707Z,96792.00
2023-01-30T11:59:00.622Z,96788.00
2023-01-30T12:01:33.905Z,96774.00
2023-01-30T12:04:07.027Z,96764.00
2023-01-30T12:06:37.925Z,96774.00
2023-01-30T12:09:06.238Z,96771.00
2023-01-30T12:11:44.669Z,96781.00
2023-01-30T12:14:42.164Z,96768.00
2023-01-30T12:17:34.811Z,96759.00
2023-01-30T12:20:20.359Z,96765.00
2023-01-30T12:23:13.851Z,96752.00
2023-01-30T12:25:52.595Z,96751.00
2023-01-30T12:28:32.688Z,96725.00
2023-01-30T12:31:26.428Z,96709.00
2023-01-30T12:33:55.494Z,96724.00
2023-01-30T12:36:36.445Z,96721.00
2023-01-30T12:39:40.857Z,96722.00
2023-01-30T12:42:26.229Z,96720.00
2023-01-30T12:45:27.120Z,96718.00
2023-01-30T12:48:31.208Z,96726.00
2023-01-30T12:51:30.275Z,96722.00
2023-01-30T12:54:34.860Z,96729.00
2023-01-30T12:57:24.511Z,96717.00
2023-01-30T13:00:11.133Z,96718.00
2023-01-30T13:03:00.641Z,96722.00
2023-01-30T13:06:05.474Z,96715.00
2023-01-30T13:08:59.285Z,96694.00
2023-01-30T13:11:54.106Z,96695.00
2023-01-30T13:15:02.709Z,96701.00
2023-01-30T13:17:56.856Z,96704.00
2023-01-30T13:20:47.084Z,96701.00
2023-01-30T13:23:44.883Z,96709.00
2023-01-30T13:26:20.294Z,96705.00
2023-01-30T13:28:55.340Z,96701.00
2023-01-30T13:31:27.120Z,96686.00
2023-01-30T13:34:07.067Z,96691.00
2023-01-30T13:37:01.118Z,96690.00
2023-01-30T13:39:42.292Z,96708.00
2023-01-30T13:42:28.003Z,96715.00
2023-01-30T13:44:57.247Z,96708.00
2023-01-30T13:48:01.873Z,96723.00
2023-01-30T13:51:15.143Z,96731.00
2023-01-30T13:53:53.183Z,96733.00
2023-01-30T13:56:40.808Z,96727.00
2023-01-30T13:59:33.903Z,96731.00
2023-01-30T14:02:07.163Z,96736.00
2023-01-30T14:04:59.024Z,96742.00
2023-01-30T14:07:31.493Z,96733.00
2023-01-30T14:10:10.539Z,96727.00
2023-01-30T14:12:44.322Z,96751.00
2023-01-30T14:15:14.567Z,96741.00
2023-01-30T14:18:13.979Z,96722.00
2023-01-30T14:20:50.478Z,96736.00
2023-01-30T14:23:36.141Z,96733.00
2023-01-30T14:26:03.162Z,96754.00
2023-01-30T14:28:29.888Z,96765.00
2023-01-30T14:31:02.418Z,96759.00
2023-01-30T14:33:48.954Z,96750.00
2023-01-30T14:36:15.749Z,96756.00
2023-01-30T14:38:44.452Z,96770.00
2023-01-30T14:41:28.403Z,96770.00
2023-01-30T14:43:55.442Z,96769.00
2023-01-30T14:46:22.240Z,96765.00
2023-01-30T14:48:55.296Z,96784.00
2023-01-30T14:51:43.492Z,96805.00
2023-01-30T14:54:33.327Z,96818.00
2023-01-30T14:57:23.044Z,96807.00
2023-01-30T15:00:14.198Z,96805.00
2023-01-30T15:02:57.776Z,96810.00
2023-01-30T15:05:34.912Z,96809.00
2023-01-30T15:08:22.667Z,96807.00
2023-01-30T15:10:51.315Z,96820.00
2023-01-30T15:13:27.286Z,96833.00
2023-01-30T15:16:55.475Z,96812.00
2023-01-30T15:20:03.061Z,96827.00
2023-01-30T15:22:57.463Z,96815.00
2023-01-30T15:25:38.711Z,96814.00
2023-01-30T15:28:38.525Z,96821.00
2023-01-30T15:31:20.011Z,96830.00
2023-01-30T15:33:52.844Z,96832.00
2023-01-30T15:36:27.319Z,96838.00
2023-01-30T15:39:17.580Z,96836.00
2023-01-30T15:41:44.507Z,96845.00
2023-01-30T15:44:19.125Z,96839.00
2023-01-30T15:47:04.408Z,96846.00
2023-01-30T15:50:02.564Z,96853.00
2023-01-30T15:52:44.393Z,96851.00
2023-01-30T15:55:26.642Z,96857.00
2023-01-30T15:58:01.682Z,96851.00
2023-01-30T16:00:36.847Z,96858.00
2023-01-30T16:03:11.709Z,96854.00
2023-01-30T16:05:51.778Z,96861.00
2023-01-30T16:08:26.293Z,96863.00
2023-01-30T16:10:53.827Z,96856.00
2023-01-30T16:13:23.709Z,96873.00
2023-01-30T16:16:08.245Z,96880.00
2023-01-30T16:18:48.100Z,96887.00
2023-01-30T16:21:34.406Z,96888.00
2023-01-30T16:24:11.741Z,96898.00
2023-01-30T16:26:44.515Z,96906.00
2023-01-30T16:29:21.483Z,96893.00
2023-01-30T16:31:52.914Z,96904.00
2023-01-30T16:34:32.404Z,96898.00
2023-01-30T16:37:08.438Z,96885.00
2023-01-30T16:39:37.613Z,96891.00
2023-01-30T16:42:26.594Z,96892.00
2023-01-30T16:45:35.872Z,96882.00
2023-01-30T16:48:30.811Z,96886.00
2023-01-30T16:51:00.790Z,96898.00
2023-01-30T16:53:32.124Z,96908.00
2023-01-30T16:56:01.918Z,96887.00
2023-01-30T16:58:35.013Z,96892.00
2023-01-30T17:01:05.819Z,96907.00
2023-01-30T17:03:38.803Z,96902.00
2023-01-30T17:06:12.824Z,96917.00
2023-01-30T17:09:35.477Z,96920.00
2023-01-30T17:12:25.476Z,96924.00
2023-01-30T17:15:13.327Z,96915.00
2023-01-30T17:17:44.035Z,96918.00
2023-01-30T17:20:12.990Z,96933.00
2023-01-30T17:22:43.118Z,96913.00
2023-01-30T17:25:39.728Z,96928.00
2023-01-30T17:28:08.873Z,96922.00
2023-01-30T17:30:35.945Z,96925.00
2023-01-30T17:33:02.739Z,96938.00
2023-01-30T17:35:29.800Z,96940.00
2023-01-30T17:38:05.229Z,96938.00
2023-01-30T17:40:39.614Z,96916.00
2023-01-30T17:43:07.065Z,96935.00
2023-01-30T17:45:35.466Z,96958.00
2023-01-30T17:48:03.312Z,96953.00
2023-01-30T17:50:32.398Z,96965.00
2023-01-30T17:52:59.911Z,96959.00
2023-01-30T17:55:27.612Z,96962.00
2023-01-30T17:57:55.042Z,96968.00
2023-01-30T18:00:25.004Z,96978.00
2023-01-30T18:02:53.465Z,96973.00
2023-01-30T18:05:23.291Z,96976.00
2023-01-30T18:07:50.198Z,96982.00
2023-01-30T18:10:20.723Z,96964.00
2023-01-30T18:12:47.743Z,96970.00
2023-01-30T18:15:16.418Z,96987.00
2023-01-30T18:17:49.445Z,96981.00
2023-01-30T18:20:19.424Z,97000.00
2023-01-30T18:22:46.960Z,97010.00
2023-01-30T18:25:14.821Z,97020.00
2023-01-30T18:27:44.077Z,97010.00
2023-01-30T18:30:17.458Z,97007.00
2023-01-30T18:32:53.627Z,97016.00
2023-01-30T18:35:22.577Z,97021.00
2023-01-30T18:37:50.074Z,97018.00
2023-01-30T18:40:19.083Z,97015.00
2023-01-30T18:42:46.829Z,97024.00
2023-01-30T18:45:13.659Z,97023.00
2023-01-30T18:47:41.469Z,97028.00
2023-01-30T18:50:09.105Z,97020.00
2023-01-30T18:52:36.209Z,97019.00
2023-01-30T18:55:03.703Z,97007.00
2023-01-30T18:57:30.557Z,97021.00
2023-01-30T18:59:57.617Z,97040.00
2023-01-30T19:02:25.112Z,97043.00
2023-01-30T19:04:52.631Z,97015.00
2023-01-30T19:07:19.471Z,97036.00
2023-01-30T19:09:46.616Z,97042.00
2023-01-30T19:12:42.031Z,97049.00
2023-01-30T19:15:10.114Z,97035.00
2023-01-30T19:17:37.076Z,97054.00
2023-01-30T19:20:10.601Z,97037.00
2023-01-30T19:22:38.743Z,97056.00
2023-01-30T19:25:06.512Z,97054.00
2023-01-30T19:27:37.448Z,97052.00
2023-01-30T19:30:05.160Z,97058.00
2023-01-30T19:32:32.408Z,97071.00
2023-01-30T19:34:59.272Z,97077.00
2023-01-30T19:37:26.191Z,97092.00
2023-01-30T19:39:53.285Z,97080.00
2023-01-30T19:42:20.310Z,97100.00
2023-01-30T19:44:47.147Z,97085.00
2023-01-30T19:47:14.385Z,97095.00
2023-01-30T19:49:42.324Z,97085.00
2023-01-30T19:52:09.257Z,97100.00
2023-01-30T19:54:36.143Z,97077.00
2023-01-30T19:57:03.387Z,97093.00
2023-01-30T19:59:30.352Z,97094.00
2023-01-30T20:01:57.832Z,97106.00
2023-01-30T20:04:24.970Z,97097.00
2023-01-30T20:06:51.828Z,97105.00
2023-01-30T20:09:19.556Z,97115.00
2023-01-30T20:11:46.719Z,97124.00
2023-01-30T20:14:14.391Z,97107.00
2023-01-30T20:16:41.612Z,97108.00
2023-01-30T20:19:14.818Z,97129.00
2023-01-30T20:21:43.009Z,97125.00
2023-01-30T20:24:15.117Z,97133.00
2023-01-30T20:26:43.277Z,97125.00
2023-01-30T20:29:12.205Z,97142.00
2023-01-30T20:31:40.300Z,97136.00
2023-01-30T20:34:12.234Z,97138.00
2023-01-30T20:36:39.462Z,97133.00
2023-01-30T20:39:07.950Z,97159.00
2023-01-30T20:41:37.583Z,97165.00
2023-01-30T20:44:07.951Z,97159.00
2023-01-30T20:46:41.662Z,97159.00
2023-01-30T20:49:22.925Z,97148.00
2023-01-30T20:51:52.709Z,97152.00
2023-01-30T20:54:22.679Z,97153.00
2023-01-30T20:56:52.714Z,97158.00
2023-01-30T20:59:24.144Z,97153.00
2023-01-30T21:01:52.236Z,97154.00
2023-01-30T21:04:21.391Z,97163.00
2023-01-30T21:06:48.286Z,97154.00
2023-01-30T21:09:21.976Z,97178.00
2023-01-30T21:11:52.615Z,97176.00
2023-01-30T21:14:19.755Z,97182.00
2023-01-30T21:16:48.684Z,97167.00
2023-01-30T21:19:18.304Z,97173.00
2023-01-30T21:21:53.627Z,97196.00
2023-01-30T21:24:24.963Z,97189.00
2023-01-30T21:26:54.075Z,97188.00
2023-01-30T21:29:25.202Z,97200.00
2023-01-30T21:31:54.349Z,97219.00
2023-01-30T21:34:22.108Z,97202.00
2023-01-30T21:37:09.984Z,97207.00
2023-01-30T21:39:56.329Z,97203.00
2023-01-30T21:42:42.312Z,97208.00
2023-01-30T21:45:17.680Z,97229.00
2023-01-30T21:47:45.585Z,97223.00
2023-01-30T21:50:12.589Z,97208.00
2023-01-30T21:52:40.178Z,97227.00
2023-01-30T21:55:09.425Z,97229.00
2023-01-30T21:57:36.601Z,97231.00
2023-01-30T22:00:05.291Z,97211.00
2023-01-30T22:02:32.113Z,97221.00
2023-01-30T22:04:59.795Z,97215.00
2023-01-30T22:07:27.043Z,97219.00
2023-01-30T22:09:54.111Z,97232.00
2023-01-30T22:12:20.952Z,97222.00
2023-01-30T22:14:48.558Z,97226.00
2023-01-30T22:17:15.434Z,97229.00
2023-01-30T22:19:42.964Z,97236.00
2023-01-30T22:22:10.484Z,97242.00
2023-01-30T22:24:37.375Z,97240.00
2023-01-30T22:27:05.431Z,97243.00
2023-01-30T22:29:32.391Z,97255.00
2023-01-30T22:31:59.180Z,97244.00
2023-01-30T22:34:25.966Z,97239.00
2023-01-30T22:36:53.113Z,97227.00
2023-01-30T22:39:20.032Z,97245.00
2023-01-30T22:41:46.824Z,97259.00
2023-01-30T22:44:14.669Z,97262.00
2023-01-30T22:46:41.825Z,97274.00
2023-01-30T22:49:10.476Z,97277.00
2023-01-30T22:51:40.826Z,97269.00
2023-01-30T22:54:15.892Z,97276.00
2023-01-30T22:56:47.006Z,97272.00
2023-01-30T22:59:14.789Z,97265.00
2023-01-30T23:01:48.232Z,97270.00
2023-01-30T23:04:19.557Z,97270.00
2023-01-30T23:06:48.948Z,97283.00
2023-01-30T23:09:23.856Z,97279.00
2023-01-30T23:12:13.956Z,97284.00
2023-01-30T23:14:43.354Z,97281.00
2023-01-30T23:17:29.064Z,97288.00
2023-01-30T23:19:56.307Z,97286.00
2023-01-30T23:22:23.207Z,97287.00
2023-01-30T23:24:51.687Z,97279.00
2023-01-30T23:27:20.788Z,97273.00
2023-01-30T23:29:48.501Z,97273.00
2023-01-30T23:32:19.032Z,97286.00
2023-01-30T23:34:47.377Z,97296.00
2023-01-30T23:37:16.077Z,97292.00
2023-01-30T23:39:44.718Z,97291.00
2023-01-30T23:42:11.703Z,97302.00
2023-01-30T23:44:38.909Z,97300.00
2023-01-30T23:47:06.306Z,97299.00
2023-01-30T23:49:35.349Z,97291.00
2023-01-30T23:52:02.690Z,97300.00
2023-01-30T23:54:31.437Z,97308.00
2023-01-30T23:56:58.241Z,97300.00
2023-01-30T23:59:25.215Z,97290.00
